sensor_id;sensor_type;location;lat;lon;timestamp;pressure;altitude;pressure_sealevel;temperature;humidity
37904;BME280;23738;50.422;18.758;2022-11-15T00:00:51;98814.25;;;5.56;84.99
37904;BME280;23738;50.422;18.758;2022-11-15T00:03:23;98816.05;;;5.56;84.80
37904;BME280;23738;50.422;18.758;2022-11-15T00:05:47;98814.91;;;5.50;84.71
37904;BME280;23738;50.422;18.758;2022-11-15T00:08:13;98803.75;;;5.52;84.85
37904;BME280;23738;50.422;18.758;2022-11-15T00:10:39;98804.26;;;5.56;84.84
37904;BME280;23738;50.422;18.758;2022-11-15T00:13:07;98802.80;;;5.57;84.85
37904;BME280;23738;50.422;18.758;2022-11-15T00:15:35;98802.95;;;5.56;84.78
37904;BME280;23738;50.422;18.758;2022-11-15T00:18:06;98796.07;;;5.51;84.72
37904;BME280;23738;50.422;18.758;2022-11-15T00:20:35;98793.91;;;5.46;84.71
37904;BME280;23738;50.422;18.758;2022-11-15T00:23:03;98792.13;;;5.43;84.67
37904;BME280;23738;50.422;18.758;2022-11-15T00:25:29;98794.41;;;5.42;84.66
37904;BME280;23738;50.422;18.758;2022-11-15T00:27:56;98785.23;;;5.42;84.70
37904;BME280;23738;50.422;18.758;2022-11-15T00:30:23;98780.33;;;5.43;84.73
37904;BME280;23738;50.422;18.758;2022-11-15T00:32:49;98780.97;;;5.41;84.75
37904;BME280;23738;50.422;18.758;2022-11-15T00:35:15;98779.00;;;5.38;84.72
37904;BME280;23738;50.422;18.758;2022-11-15T00:37:41;98773.58;;;5.36;84.81
37904;BME280;23738;50.422;18.758;2022-11-15T00:40:08;98766.54;;;5.36;84.71
37904;BME280;23738;50.422;18.758;2022-11-15T00:42:36;98764.59;;;5.38;84.78
37904;BME280;23738;50.422;18.758;2022-11-15T00:45:02;98759.04;;;5.42;84.84
37904;BME280;23738;50.422;18.758;2022-11-15T00:47:27;98756.08;;;5.45;84.86
37904;BME280;23738;50.422;18.758;2022-11-15T00:49:53;98752.81;;;5.47;84.83
37904;BME280;23738;50.422;18.758;2022-11-15T00:52:19;98755.92;;;5.46;84.87
37904;BME280;23738;50.422;18.758;2022-11-15T00:54:45;98750.84;;;5.45;84.81
37904;BME280;23738;50.422;18.758;2022-11-15T00:57:11;98748.70;;;5.44;84.74
37904;BME280;23738;50.422;18.758;2022-11-15T00:59:36;98744.63;;;5.46;84.75
37904;BME280;23738;50.422;18.758;2022-11-15T01:02:02;98743.98;;;5.48;84.79
37904;BME280;23738;50.422;18.758;2022-11-15T01:04:28;98738.23;;;5.52;84.80
37904;BME280;23738;50.422;18.758;2022-11-15T01:06:54;98736.78;;;5.50;84.61
37904;BME280;23738;50.422;18.758;2022-11-15T01:09:19;98729.88;;;5.45;84.58
37904;BME280;23738;50.422;18.758;2022-11-15T01:11:45;98728.58;;;5.41;84.49
37904;BME280;23738;50.422;18.758;2022-11-15T01:14:11;98727.42;;;5.39;84.57
37904;BME280;23738;50.422;18.758;2022-11-15T01:16:37;98723.18;;;5.42;84.60
37904;BME280;23738;50.422;18.758;2022-11-15T01:19:03;98722.17;;;5.43;84.54
37904;BME280;23738;50.422;18.758;2022-11-15T01:21:29;98722.36;;;5.42;84.44
37904;BME280;23738;50.422;18.758;2022-11-15T01:23:56;98723.98;;;5.38;84.39
37904;BME280;23738;50.422;18.758;2022-11-15T01:26:23;98722.34;;;5.33;84.27
37904;BME280;23738;50.422;18.758;2022-11-15T01:28:50;98729.52;;;5.27;84.19
37904;BME280;23738;50.422;18.758;2022-11-15T01:31:18;98713.48;;;5.22;84.16
37904;BME280;23738;50.422;18.758;2022-11-15T01:33:46;98712.81;;;5.20;84.11
37904;BME280;23738;50.422;18.758;2022-11-15T01:36:19;98719.36;;;5.20;84.09
37904;BME280;23738;50.422;18.758;2022-11-15T01:38:56;98710.19;;;5.20;84.19
37904;BME280;23738;50.422;18.758;2022-11-15T01:41:26;98711.84;;;5.17;84.05
37904;BME280;23738;50.422;18.758;2022-11-15T01:43:55;98703.95;;;5.13;84.07
37904;BME280;23738;50.422;18.758;2022-11-15T01:46:26;98705.92;;;5.07;83.96
37904;BME280;23738;50.422;18.758;2022-11-15T01:48:54;98698.70;;;5.01;83.85
37904;BME280;23738;50.422;18.758;2022-11-15T01:51:24;98699.02;;;4.98;83.72
37904;BME280;23738;50.422;18.758;2022-11-15T01:53:54;98699.33;;;4.95;83.66
37904;BME280;23738;50.422;18.758;2022-11-15T01:56:25;98693.76;;;4.90;83.66
37904;BME280;23738;50.422;18.758;2022-11-15T01:58:55;98695.70;;;4.88;83.69
37904;BME280;23738;50.422;18.758;2022-11-15T02:01:24;98690.63;;;4.82;83.57
37904;BME280;23738;50.422;18.758;2022-11-15T02:03:59;98685.22;;;4.76;83.53
37904;BME280;23738;50.422;18.758;2022-11-15T02:06:27;98681.59;;;4.73;83.52
37904;BME280;23738;50.422;18.758;2022-11-15T02:08:54;98676.21;;;4.70;83.42
37904;BME280;23738;50.422;18.758;2022-11-15T02:11:20;98676.84;;;4.68;83.43
37904;BME280;23738;50.422;18.758;2022-11-15T02:13:46;98672.74;;;4.66;83.37
37904;BME280;23738;50.422;18.758;2022-11-15T02:30:47;98663.34;;;4.39;83.11
37904;BME280;23738;50.422;18.758;2022-11-15T02:36:40;98658.56;;;4.34;83.12
37904;BME280;23738;50.422;18.758;2022-11-15T02:44:41;98648.54;;;4.21;83.07
37904;BME280;23738;50.422;18.758;2022-11-15T02:47:11;98645.92;;;4.21;83.07
37904;BME280;23738;50.422;18.758;2022-11-15T02:49:42;98654.59;;;4.22;83.07
37904;BME280;23738;50.422;18.758;2022-11-15T02:52:15;98645.44;;;4.26;83.11
37904;BME280;23738;50.422;18.758;2022-11-15T02:54:42;98645.78;;;4.27;83.12
37904;BME280;23738;50.422;18.758;2022-11-15T02:57:16;98643.46;;;4.20;83.02
37904;BME280;23738;50.422;18.758;2022-11-15T03:05:37;98627.40;;;4.11;83.08
37904;BME280;23738;50.422;18.758;2022-11-15T03:08:41;98626.61;;;4.14;83.14
37904;BME280;23738;50.422;18.758;2022-11-15T03:11:18;98618.44;;;4.17;83.32
37904;BME280;23738;50.422;18.758;2022-11-15T03:14:04;98614.03;;;4.18;83.13
37904;BME280;23738;50.422;18.758;2022-11-15T03:16:41;98616.16;;;4.18;83.25
37904;BME280;23738;50.422;18.758;2022-11-15T03:19:33;98613.20;;;4.13;83.06
37904;BME280;23738;50.422;18.758;2022-11-15T03:22:06;98618.06;;;4.08;83.05
37904;BME280;23738;50.422;18.758;2022-11-15T03:24:36;98605.81;;;4.05;82.97
37904;BME280;23738;50.422;18.758;2022-11-15T03:27:08;98603.83;;;4.03;82.90
37904;BME280;23738;50.422;18.758;2022-11-15T03:29:38;98607.27;;;4.07;83.09
37904;BME280;23738;50.422;18.758;2022-11-15T03:32:08;98600.25;;;4.08;82.97
37904;BME280;23738;50.422;18.758;2022-11-15T03:34:49;98598.60;;;4.03;82.92
37904;BME280;23738;50.422;18.758;2022-11-15T03:37:27;98604.80;;;3.98;82.85
37904;BME280;23738;50.422;18.758;2022-11-15T03:39:57;98602.30;;;3.92;82.79
37904;BME280;23738;50.422;18.758;2022-11-15T03:42:32;98604.56;;;3.87;82.75
37904;BME280;23738;50.422;18.758;2022-11-15T03:45:10;98603.45;;;3.90;82.90
37904;BME280;23738;50.422;18.758;2022-11-15T03:47:54;98598.55;;;3.91;82.81
37904;BME280;23738;50.422;18.758;2022-11-15T03:50:25;98603.74;;;3.87;82.69
37904;BME280;23738;50.422;18.758;2022-11-15T03:52:53;98596.54;;;3.84;82.86
37904;BME280;23738;50.422;18.758;2022-11-15T03:55:20;98599.33;;;3.83;82.82
37904;BME280;23738;50.422;18.758;2022-11-15T03:57:50;98596.83;;;3.77;82.71
37904;BME280;23738;50.422;18.758;2022-11-15T04:00:16;98594.55;;;3.74;82.69
37904;BME280;23738;50.422;18.758;2022-11-15T04:02:42;98593.23;;;3.74;82.69
37904;BME280;23738;50.422;18.758;2022-11-15T04:05:08;98590.14;;;3.75;82.67
37904;BME280;23738;50.422;18.758;2022-11-15T04:07:34;98590.63;;;3.74;82.69
37904;BME280;23738;50.422;18.758;2022-11-15T04:10:00;98586.38;;;3.73;82.68
37904;BME280;23738;50.422;18.758;2022-11-15T04:12:30;98587.97;;;3.70;82.68
37904;BME280;23738;50.422;18.758;2022-11-15T04:15:06;98585.84;;;3.66;82.58
37904;BME280;23738;50.422;18.758;2022-11-15T04:17:40;98578.59;;;3.60;82.59
37904;BME280;23738;50.422;18.758;2022-11-15T04:20:19;98576.98;;;3.59;82.54
37904;BME280;23738;50.422;18.758;2022-11-15T04:23:09;98573.21;;;3.57;82.56
37904;BME280;23738;50.422;18.758;2022-11-15T04:25:55;98569.63;;;3.58;82.54
37904;BME280;23738;50.422;18.758;2022-11-15T04:28:22;98570.11;;;3.58;82.54
37904;BME280;23738;50.422;18.758;2022-11-15T04:30:48;98572.20;;;3.54;82.55
37904;BME280;23738;50.422;18.758;2022-11-15T04:33:14;98564.69;;;3.51;82.52
37904;BME280;23738;50.422;18.758;2022-11-15T04:35:40;98551.44;;;3.49;82.59
37904;BME280;23738;50.422;18.758;2022-11-15T04:38:07;98552.27;;;3.49;82.56
37904;BME280;23738;50.422;18.758;2022-11-15T04:40:35;98543.28;;;3.52;82.62
37904;BME280;23738;50.422;18.758;2022-11-15T04:43:01;98551.30;;;3.50;82.52
37904;BME280;23738;50.422;18.758;2022-11-15T04:45:27;98546.22;;;3.49;82.45
37904;BME280;23738;50.422;18.758;2022-11-15T04:47:53;98544.73;;;3.46;82.51
37904;BME280;23738;50.422;18.758;2022-11-15T04:50:18;98547.82;;;3.45;82.62
37904;BME280;23738;50.422;18.758;2022-11-15T04:52:50;98542.59;;;3.41;82.48
37904;BME280;23738;50.422;18.758;2022-11-15T04:55:17;98543.56;;;3.40;82.61
37904;BME280;23738;50.422;18.758;2022-11-15T04:57:43;98538.67;;;3.41;82.62
37904;BME280;23738;50.422;18.758;2022-11-15T05:00:11;98534.09;;;3.43;82.58
37904;BME280;23738;50.422;18.758;2022-11-15T05:02:39;98535.10;;;3.46;82.62
37904;BME280;23738;50.422;18.758;2022-11-15T05:05:24;98538.52;;;3.43;82.61
37904;BME280;23738;50.422;18.758;2022-11-15T05:07:50;98532.63;;;3.41;82.60
37904;BME280;23738;50.422;18.758;2022-11-15T05:10:16;98525.42;;;3.39;82.71
37904;BME280;23738;50.422;18.758;2022-11-15T05:12:42;98525.08;;;3.34;82.62
37904;BME280;23738;50.422;18.758;2022-11-15T05:15:09;98521.80;;;3.32;82.58
37904;BME280;23738;50.422;18.758;2022-11-15T05:17:35;98519.67;;;3.35;82.67
37904;BME280;23738;50.422;18.758;2022-11-15T05:20:00;98520.20;;;3.39;82.77
37904;BME280;23738;50.422;18.758;2022-11-15T05:22:27;98515.02;;;3.43;82.79
37904;BME280;23738;50.422;18.758;2022-11-15T05:24:53;98508.16;;;3.46;82.97
37904;BME280;23738;50.422;18.758;2022-11-15T05:27:18;98508.50;;;3.47;82.93
37904;BME280;23738;50.422;18.758;2022-11-15T05:29:44;98503.42;;;3.45;82.88
37904;BME280;23738;50.422;18.758;2022-11-15T05:32:11;98501.30;;;3.45;82.82
37904;BME280;23738;50.422;18.758;2022-11-15T05:34:38;98505.22;;;3.45;82.73
37904;BME280;23738;50.422;18.758;2022-11-15T05:37:04;98499.66;;;3.44;82.85
37904;BME280;23738;50.422;18.758;2022-11-15T05:39:30;98506.67;;;3.43;82.82
37904;BME280;23738;50.422;18.758;2022-11-15T05:42:06;98503.75;;;3.42;82.86
37904;BME280;23738;50.422;18.758;2022-11-15T05:44:34;98501.45;;;3.43;82.99
37904;BME280;23738;50.422;18.758;2022-11-15T05:47:03;98506.19;;;3.44;82.94
37904;BME280;23738;50.422;18.758;2022-11-15T05:49:33;98512.37;;;3.39;82.73
37904;BME280;23738;50.422;18.758;2022-11-15T05:52:02;98508.79;;;3.40;83.07
37904;BME280;23738;50.422;18.758;2022-11-15T05:54:31;98509.80;;;3.43;82.95
37904;BME280;23738;50.422;18.758;2022-11-15T05:56:58;98514.50;;;3.43;82.83
37904;BME280;23738;50.422;18.758;2022-11-15T05:59:25;98514.84;;;3.44;82.84
37904;BME280;23738;50.422;18.758;2022-11-15T06:01:54;98509.80;;;3.43;82.96
37904;BME280;23738;50.422;18.758;2022-11-15T06:04:20;98512.08;;;3.42;82.84
37904;BME280;23738;50.422;18.758;2022-11-15T06:06:45;98514.64;;;3.38;82.73
37904;BME280;23738;50.422;18.758;2022-11-15T06:09:11;98510.68;;;3.30;82.62
37904;BME280;23738;50.422;18.758;2022-11-15T06:11:37;98508.55;;;3.29;82.78
37904;BME280;23738;50.422;18.758;2022-11-15T06:14:02;98506.47;;;3.33;82.79
37904;BME280;23738;50.422;18.758;2022-11-15T06:16:28;98507.14;;;3.35;82.67
37904;BME280;23738;50.422;18.758;2022-11-15T06:18:54;98506.63;;;3.35;82.80
37904;BME280;23738;50.422;18.758;2022-11-15T06:21:20;98502.89;;;3.38;82.76
37904;BME280;23738;50.422;18.758;2022-11-15T06:23:46;98511.54;;;3.34;82.69
37904;BME280;23738;50.422;18.758;2022-11-15T06:26:11;98506.95;;;3.32;82.72
37904;BME280;23738;50.422;18.758;2022-11-15T06:28:37;98509.71;;;3.31;82.65
37904;BME280;23738;50.422;18.758;2022-11-15T06:31:08;98502.84;;;3.30;82.63
37904;BME280;23738;50.422;18.758;2022-11-15T06:33:36;98507.73;;;3.29;82.52
37904;BME280;23738;50.422;18.758;2022-11-15T06:36:04;98500.23;;;3.30;82.69
37904;BME280;23738;50.422;18.758;2022-11-15T06:38:32;98504.64;;;3.29;82.50
37904;BME280;23738;50.422;18.758;2022-11-15T06:41:04;98509.02;;;3.25;82.42
37904;BME280;23738;50.422;18.758;2022-11-15T06:43:32;98510.48;;;3.23;82.53
37904;BME280;23738;50.422;18.758;2022-11-15T06:45:59;98508.39;;;3.27;82.86
37904;BME280;23738;50.422;18.758;2022-11-15T06:48:26;98509.86;;;3.29;82.74
37904;BME280;23738;50.422;18.758;2022-11-15T06:50:53;98510.00;;;3.28;82.64
37904;BME280;23738;50.422;18.758;2022-11-15T06:53:20;98512.17;;;3.32;82.71
37904;BME280;23738;50.422;18.758;2022-11-15T06:55:47;98512.22;;;3.40;82.81
37904;BME280;23738;50.422;18.758;2022-11-15T06:58:13;98509.80;;;3.43;82.71
37904;BME280;23738;50.422;18.758;2022-11-15T07:00:39;98516.81;;;3.46;82.85
37904;BME280;23738;50.422;18.758;2022-11-15T07:03:05;98520.44;;;3.50;82.87
37904;BME280;23738;50.422;18.758;2022-11-15T07:05:31;98523.06;;;3.54;82.98
37904;BME280;23738;50.422;18.758;2022-11-15T07:07:58;98517.69;;;3.55;82.88
37904;BME280;23738;50.422;18.758;2022-11-15T07:10:24;98515.37;;;3.52;82.86
37904;BME280;23738;50.422;18.758;2022-11-15T07:12:51;98520.34;;;3.63;82.93
37904;BME280;23738;50.422;18.758;2022-11-15T07:15:19;98517.77;;;3.71;83.01
37904;BME280;23738;50.422;18.758;2022-11-15T07:17:46;98515.83;;;3.77;82.98
37904;BME280;23738;50.422;18.758;2022-11-15T07:20:13;98518.78;;;3.78;83.02
37904;BME280;23738;50.422;18.758;2022-11-15T07:22:40;98514.89;;;3.82;83.21
37904;BME280;23738;50.422;18.758;2022-11-15T07:25:07;98515.56;;;3.89;83.26
37904;BME280;23738;50.422;18.758;2022-11-15T07:27:33;98516.75;;;3.98;83.38
37904;BME280;23738;50.422;18.758;2022-11-15T07:29:59;98517.75;;;4.09;83.51
37904;BME280;23738;50.422;18.758;2022-11-15T07:32:26;98522.55;;;4.22;83.59
37904;BME280;23738;50.422;18.758;2022-11-15T07:34:51;98517.81;;;4.34;83.85
37904;BME280;23738;50.422;18.758;2022-11-15T07:37:17;98519.80;;;4.44;83.75
37904;BME280;23738;50.422;18.758;2022-11-15T07:39:43;98512.28;;;4.49;83.84
37904;BME280;23738;50.422;18.758;2022-11-15T07:42:09;98516.56;;;4.54;84.04
37904;BME280;23738;50.422;18.758;2022-11-15T07:44:53;98512.46;;;4.63;84.01
37904;BME280;23738;50.422;18.758;2022-11-15T07:47:19;98514.61;;;4.76;84.14
37904;BME280;23738;50.422;18.758;2022-11-15T07:49:45;98511.17;;;4.88;84.13
37904;BME280;23738;50.422;18.758;2022-11-15T07:52:12;98509.70;;;4.97;84.32
37904;BME280;23738;50.422;18.758;2022-11-15T07:54:38;98508.39;;;5.10;84.51
37904;BME280;23738;50.422;18.758;2022-11-15T07:57:04;98502.48;;;5.24;84.64
37904;BME280;23738;50.422;18.758;2022-11-15T07:59:32;98497.23;;;5.32;84.62
37904;BME280;23738;50.422;18.758;2022-11-15T08:01:58;98495.88;;;5.44;84.74
37904;BME280;23738;50.422;18.758;2022-11-15T08:04:24;98486.98;;;5.61;84.96
37904;BME280;23738;50.422;18.758;2022-11-15T08:06:50;98486.61;;;5.76;84.99
37904;BME280;23738;50.422;18.758;2022-11-15T08:09:15;98483.98;;;5.89;85.13
37904;BME280;23738;50.422;18.758;2022-11-15T08:11:41;98480.14;;;6.03;85.32
37904;BME280;23738;50.422;18.758;2022-11-15T08:14:07;98479.77;;;6.14;85.44
37904;BME280;23738;50.422;18.758;2022-11-15T08:16:33;98473.12;;;6.23;85.48
37904;BME280;23738;50.422;18.758;2022-11-15T08:18:58;98470.93;;;6.38;85.65
37904;BME280;23738;50.422;18.758;2022-11-15T08:21:24;98471.11;;;6.56;85.75
37904;BME280;23738;50.422;18.758;2022-11-15T08:23:50;98459.18;;;6.72;85.82
37904;BME280;23738;50.422;18.758;2022-11-15T08:26:15;98467.72;;;6.93;86.04
37904;BME280;23738;50.422;18.758;2022-11-15T08:28:41;98463.90;;;7.14;86.19
37904;BME280;23738;50.422;18.758;2022-11-15T08:31:13;98466.02;;;7.33;86.28
37904;BME280;23738;50.422;18.758;2022-11-15T08:33:42;98461.91;;;7.49;86.29
37904;BME280;23738;50.422;18.758;2022-11-15T08:36:12;98463.97;;;7.68;86.34
37904;BME280;23738;50.422;18.758;2022-11-15T08:38:41;98462.41;;;7.89;86.47
37904;BME280;23738;50.422;18.758;2022-11-15T08:41:10;98462.45;;;8.10;86.42
37904;BME280;23738;50.422;18.758;2022-11-15T08:43:39;98456.30;;;8.28;86.49
37904;BME280;23738;50.422;18.758;2022-11-15T08:46:04;98448.30;;;8.47;86.58
37904;BME280;23738;50.422;18.758;2022-11-15T08:48:30;98451.49;;;8.64;86.57
37904;BME280;23738;50.422;18.758;2022-11-15T08:50:56;98452.05;;;8.80;86.51
37904;BME280;23738;50.422;18.758;2022-11-15T08:53:23;98451.45;;;8.96;86.39
37904;BME280;23738;50.422;18.758;2022-11-15T08:55:48;98443.40;;;9.14;86.34
37904;BME280;23738;50.422;18.758;2022-11-15T08:58:14;98443.80;;;9.29;86.24
37904;BME280;23738;50.422;18.758;2022-11-15T09:00:40;98444.17;;;9.43;86.24
37904;BME280;23738;50.422;18.758;2022-11-15T09:03:06;98452.78;;;9.58;86.15
37904;BME280;23738;50.422;18.758;2022-11-15T09:05:36;98443.01;;;9.69;86.08
37904;BME280;23738;50.422;18.758;2022-11-15T09:08:03;98448.45;;;9.85;86.12
37904;BME280;23738;50.422;18.758;2022-11-15T09:10:29;98450.46;;;10.07;85.93
37904;BME280;23738;50.422;18.758;2022-11-15T09:12:57;98448.51;;;10.22;85.84
37904;BME280;23738;50.422;18.758;2022-11-15T09:15:23;98448.95;;;10.39;85.83
37904;BME280;23738;50.422;18.758;2022-11-15T09:17:48;98445.36;;;10.53;85.65
37904;BME280;23738;50.422;18.758;2022-11-15T09:20:15;98437.13;;;10.65;85.41
37904;BME280;23738;50.422;18.758;2022-11-15T09:22:42;98431.02;;;10.78;85.35
37904;BME280;23738;50.422;18.758;2022-11-15T09:25:08;98433.88;;;10.96;85.21
37904;BME280;23738;50.422;18.758;2022-11-15T09:27:34;98424.52;;;11.13;84.94
37904;BME280;23738;50.422;18.758;2022-11-15T09:30:00;98419.81;;;11.28;84.62
37904;BME280;23738;50.422;18.758;2022-11-15T09:32:28;98418.45;;;11.41;84.45
37904;BME280;23738;50.422;18.758;2022-11-15T09:34:55;98412.23;;;11.51;84.34
37904;BME280;23738;50.422;18.758;2022-11-15T09:37:21;98413.60;;;11.67;84.07
37904;BME280;23738;50.422;18.758;2022-11-15T09:39:47;98412.55;;;11.81;84.13
37904;BME280;23738;50.422;18.758;2022-11-15T09:42:45;98413.44;;;11.91;83.61
37904;BME280;23738;50.422;18.758;2022-11-15T09:51:28;98397.84;;;12.46;82.59
37904;BME280;23738;50.422;18.758;2022-11-15T09:54:11;98394.93;;;12.54;81.79
37904;BME280;23738;50.422;18.758;2022-11-15T09:56:37;98392.53;;;12.61;81.61
37904;BME280;23738;50.422;18.758;2022-11-15T10:05:04;98387.23;;;12.86;80.90
37904;BME280;23738;50.422;18.758;2022-11-15T10:07:46;98388.88;;;12.96;80.71
37904;BME280;23738;50.422;18.758;2022-11-15T10:10:20;98381.68;;;13.03;80.38
37904;BME280;23738;50.422;18.758;2022-11-15T10:12:50;98382.58;;;13.07;79.52
37904;BME280;23738;50.422;18.758;2022-11-15T10:15:18;98377.87;;;13.09;79.52
37904;BME280;23738;50.422;18.758;2022-11-15T10:20:44;98370.92;;;13.23;79.29
37904;BME280;23738;50.422;18.758;2022-11-15T10:23:18;98374.09;;;13.32;78.82
37904;BME280;23738;50.422;18.758;2022-11-15T10:25:45;98378.08;;;13.32;78.45
37904;BME280;23738;50.422;18.758;2022-11-15T10:28:25;98381.98;;;13.38;78.21
37904;BME280;23738;50.422;18.758;2022-11-15T10:30:56;98369.06;;;13.60;78.35
37904;BME280;23738;50.422;18.758;2022-11-15T10:38:53;98373.45;;;13.94;77.74
37904;BME280;23738;50.422;18.758;2022-11-15T10:46:40;98370.31;;;14.06;76.34
37904;BME280;23738;50.422;18.758;2022-11-15T10:49:15;98363.60;;;14.12;76.51
37904;BME280;23738;50.422;18.758;2022-11-15T10:51:55;98362.17;;;14.19;76.40
37904;BME280;23738;50.422;18.758;2022-11-15T10:54:38;98356.27;;;14.17;76.01
37904;BME280;23738;50.422;18.758;2022-11-15T10:57:14;98352.89;;;14.31;75.80
37904;BME280;23738;50.422;18.758;2022-11-15T10:59:38;98342.34;;;14.42;75.93
37904;BME280;23738;50.422;18.758;2022-11-15T11:02:30;98330.45;;;14.57;75.38
37904;BME280;23738;50.422;18.758;2022-11-15T11:04:59;98331.59;;;14.61;75.42
37904;BME280;23738;50.422;18.758;2022-11-15T11:07:28;98329.66;;;14.68;75.11
37904;BME280;23738;50.422;18.758;2022-11-15T11:10:20;98326.23;;;14.70;74.67
37904;BME280;23738;50.422;18.758;2022-11-15T11:12:47;98334.97;;;14.79;74.40
37904;BME280;23738;50.422;18.758;2022-11-15T11:15:14;98332.77;;;14.88;74.57
37904;BME280;23738;50.422;18.758;2022-11-15T11:18:07;98334.86;;;14.98;74.36
37904;BME280;23738;50.422;18.758;2022-11-15T11:20:45;98318.84;;;15.07;74.33
37904;BME280;23738;50.422;18.758;2022-11-15T11:34:55;98304.97;;;14.58;72.08
37904;BME280;23738;50.422;18.758;2022-11-15T11:37:46;98300.56;;;14.31;72.88
37904;BME280;23738;50.422;18.758;2022-11-15T11:40:44;98290.27;;;14.23;73.31
37904;BME280;23738;50.422;18.758;2022-11-15T11:49:33;98288.74;;;14.04;72.03
37904;BME280;23738;50.422;18.758;2022-11-15T11:52:38;98290.59;;;14.03;72.70
37904;BME280;23738;50.422;18.758;2022-11-15T11:55:37;98279.59;;;14.00;72.65
37904;BME280;23738;50.422;18.758;2022-11-15T11:58:21;98272.55;;;13.94;71.94
37904;BME280;23738;50.422;18.758;2022-11-15T12:01:23;98275.52;;;13.86;71.97
37904;BME280;23738;50.422;18.758;2022-11-15T12:03:55;98267.14;;;13.79;72.16
37904;BME280;23738;50.422;18.758;2022-11-15T12:06:35;98262.20;;;13.74;72.42
37904;BME280;23738;50.422;18.758;2022-11-15T12:12:27;98254.60;;;13.57;72.47
37904;BME280;23738;50.422;18.758;2022-11-15T12:15:02;98255.18;;;13.50;72.09
37904;BME280;23738;50.422;18.758;2022-11-15T12:17:32;98257.06;;;13.40;72.27
37904;BME280;23738;50.422;18.758;2022-11-15T12:19:59;98253.09;;;13.31;72.18
37904;BME280;23738;50.422;18.758;2022-11-15T12:22:45;98249.42;;;13.23;72.06
37904;BME280;23738;50.422;18.758;2022-11-15T12:25:26;98251.45;;;13.12;72.03
37904;BME280;23738;50.422;18.758;2022-11-15T12:31:17;98241.81;;;12.90;72.09
37904;BME280;23738;50.422;18.758;2022-11-15T12:33:49;98239.81;;;12.85;72.24
37904;BME280;23738;50.422;18.758;2022-11-15T12:39:11;98229.20;;;12.85;72.45
37904;BME280;23738;50.422;18.758;2022-11-15T12:41:39;98230.83;;;12.86;72.39
37904;BME280;23738;50.422;18.758;2022-11-15T12:45:00;98225.78;;;12.85;72.12
37904;BME280;23738;50.422;18.758;2022-11-15T12:47:04;98225.78;;;12.85;72.12
37904;BME280;23738;50.422;18.758;2022-11-15T12:52:08;98218.63;;;12.67;72.56
37904;BME280;23738;50.422;18.758;2022-11-15T12:57:29;98208.66;;;12.53;72.17
37904;BME280;23738;50.422;18.758;2022-11-15T12:59:59;98204.75;;;12.47;72.52
37904;BME280;23738;50.422;18.758;2022-11-15T13:02:38;98210.34;;;12.48;72.59
37904;BME280;23738;50.422;18.758;2022-11-15T13:10:28;98202.84;;;12.54;72.43
37904;BME280;23738;50.422;18.758;2022-11-15T13:12:59;98202.84;;;12.54;72.43
37904;BME280;23738;50.422;18.758;2022-11-15T13:15:40;98203.09;;;12.52;72.58
37904;BME280;23738;50.422;18.758;2022-11-15T13:18:39;98193.42;;;12.49;72.69
37904;BME280;23738;50.422;18.758;2022-11-15T13:21:21;98195.18;;;12.46;72.74
37904;BME280;23738;50.422;18.758;2022-11-15T13:24:12;98191.66;;;12.43;72.90
37904;BME280;23738;50.422;18.758;2022-11-15T13:26:39;98188.72;;;12.42;72.97
37904;BME280;23738;50.422;18.758;2022-11-15T13:29:17;98188.41;;;12.41;72.99
37904;BME280;23738;50.422;18.758;2022-11-15T13:31:44;98176.70;;;12.39;73.00
37904;BME280;23738;50.422;18.758;2022-11-15T13:34:28;98181.95;;;12.37;73.07
37904;BME280;23738;50.422;18.758;2022-11-15T13:36:57;98185.02;;;12.34;73.09
37904;BME280;23738;50.422;18.758;2022-11-15T13:39:26;98182.23;;;12.29;73.15
37904;BME280;23738;50.422;18.758;2022-11-15T13:41:54;98183.38;;;12.23;73.18
37904;BME280;23738;50.422;18.758;2022-11-15T13:44:29;98183.54;;;12.19;73.20
37904;BME280;23738;50.422;18.758;2022-11-15T13:47:18;98176.44;;;12.13;73.32
37904;BME280;23738;50.422;18.758;2022-11-15T13:49:44;98174.25;;;12.10;73.48
37904;BME280;23738;50.422;18.758;2022-11-15T13:52:16;98165.41;;;12.07;73.53
37904;BME280;23738;50.422;18.758;2022-11-15T13:55:02;98168.56;;;12.07;73.51
37904;BME280;23738;50.422;18.758;2022-11-15T13:57:44;98165.98;;;12.00;73.51
37904;BME280;23738;50.422;18.758;2022-11-15T14:00:33;98164.92;;;11.92;73.57
37904;BME280;23738;50.422;18.758;2022-11-15T14:03:19;98162.05;;;11.84;73.60
37904;BME280;23738;50.422;18.758;2022-11-15T14:11:49;98159.53;;;11.65;73.91
37904;BME280;23738;50.422;18.758;2022-11-15T14:14:22;98160.25;;;11.63;73.94
37904;BME280;23738;50.422;18.758;2022-11-15T14:16:55;98158.74;;;11.58;73.90
37904;BME280;23738;50.422;18.758;2022-11-15T14:22:26;98156.36;;;11.49;73.95
37904;BME280;23738;50.422;18.758;2022-11-15T14:25:05;98141.82;;;11.34;73.98
37904;BME280;23738;50.422;18.758;2022-11-15T14:30:42;98141.56;;;11.26;74.12
37904;BME280;23738;50.422;18.758;2022-11-15T14:36:12;98143.58;;;11.15;74.21
37904;BME280;23738;50.422;18.758;2022-11-15T14:38:39;98135.19;;;11.09;74.31
37904;BME280;23738;50.422;18.758;2022-11-15T14:41:16;98133.16;;;11.04;74.32
37904;BME280;23738;50.422;18.758;2022-11-15T14:43:45;98124.55;;;11.00;74.37
37904;BME280;23738;50.422;18.758;2022-11-15T14:46:11;98125.68;;;10.95;74.37
37904;BME280;23738;50.422;18.758;2022-11-15T14:48:36;98124.19;;;10.90;74.41
37904;BME280;23738;50.422;18.758;2022-11-15T14:51:03;98124.02;;;10.85;74.46
37904;BME280;23738;50.422;18.758;2022-11-15T14:53:28;98121.19;;;10.80;74.54
37904;BME280;23738;50.422;18.758;2022-11-15T14:55:54;98120.30;;;10.77;74.61
37904;BME280;23738;50.422;18.758;2022-11-15T14:58:20;98121.22;;;10.73;74.67
37904;BME280;23738;50.422;18.758;2022-11-15T15:00:46;98112.38;;;10.70;74.70
37904;BME280;23738;50.422;18.758;2022-11-15T15:03:11;98107.73;;;10.65;74.73